sensor_id;sensor_type;location;lat;lon;timestamp;P1;durP1;ratioP1;P2;durP2;ratioP2
7406;SDS011;3745;56.964;24.128;2023-03-11T00:01:23;2.40;;;2.20;;
7406;SDS011;3745;56.964;24.128;2023-03-11T00:03:49;2.33;;;2.13;;
7406;SDS011;3745;56.964;24.128;2023-03-11T00:06:15;2.13;;;2.03;;
7406;SDS011;3745;56.964;24.128;2023-03-11T00:08:40;2.53;;;2.33;;
7406;SDS011;3745;56.964;24.128;2023-03-11T00:11:06;2.43;;;2.23;;
7406;SDS011;3745;56.964;24.128;2023-03-11T00:13:32;3.20;;;2.50;;
7406;SDS011;3745;56.964;24.128;2023-03-11T00:15:58;2.50;;;2.40;;
7406;SDS011;3745;56.964;24.128;2023-03-11T00:18:25;2.40;;;2.20;;
7406;SDS011;3745;56.964;24.128;2023-03-11T00:20:54;2.70;;;2.50;;
7406;SDS011;3745;56.964;24.128;2023-03-11T00:23:20;3.00;;;2.63;;
7406;SDS011;3745;56.964;24.128;2023-03-11T00:25:48;2.27;;;2.17;;
7406;SDS011;3745;56.964;24.128;2023-03-11T00:28:13;3.93;;;2.63;;
7406;SDS011;3745;56.964;24.128;2023-03-11T00:30:40;3.40;;;2.63;;
7406;SDS011;3745;56.964;24.128;2023-03-11T00:33:06;2.70;;;2.50;;
7406;SDS011;3745;56.964;24.128;2023-03-11T00:35:32;3.80;;;2.60;;
7406;SDS011;3745;56.964;24.128;2023-03-11T00:38:04;2.80;;;2.60;;
7406;SDS011;3745;56.964;24.128;2023-03-11T00:40:31;3.87;;;2.47;;
7406;SDS011;3745;56.964;24.128;2023-03-11T00:42:58;2.47;;;2.27;;
7406;SDS011;3745;56.964;24.128;2023-03-11T00:45:25;3.10;;;2.57;;
7406;SDS011;3745;56.964;24.128;2023-03-11T00:47:51;2.13;;;2.03;;
7406;SDS011;3745;56.964;24.128;2023-03-11T00:50:18;2.77;;;2.57;;
7406;SDS011;3745;56.964;24.128;2023-03-11T00:52:46;2.57;;;2.47;;
7406;SDS011;3745;56.964;24.128;2023-03-11T00:55:14;2.77;;;2.57;;
7406;SDS011;3745;56.964;24.128;2023-03-11T00:57:41;4.47;;;2.73;;
7406;SDS011;3745;56.964;24.128;2023-03-11T01:00:11;6.00;;;3.00;;
7406;SDS011;3745;56.964;24.128;2023-03-11T01:02:41;5.30;;;2.73;;
7406;SDS011;3745;56.964;24.128;2023-03-11T01:05:07;2.10;;;2.00;;
7406;SDS011;3745;56.964;24.128;2023-03-11T01:07:34;3.90;;;2.60;;
7406;SDS011;3745;56.964;24.128;2023-03-11T01:10:00;2.27;;;2.13;;
7406;SDS011;3745;56.964;24.128;2023-03-11T01:12:25;3.23;;;2.60;;
7406;SDS011;3745;56.964;24.128;2023-03-11T01:14:51;5.47;;;2.80;;
7406;SDS011;3745;56.964;24.128;2023-03-11T01:17:17;4.83;;;2.60;;
7406;SDS011;3745;56.964;24.128;2023-03-11T01:19:42;3.27;;;2.63;;
7406;SDS011;3745;56.964;24.128;2023-03-11T01:22:09;2.80;;;2.47;;
7406;SDS011;3745;56.964;24.128;2023-03-11T01:24:35;2.60;;;2.40;;
7406;SDS011;3745;56.964;24.128;2023-03-11T01:27:00;2.47;;;2.00;;
7406;SDS011;3745;56.964;24.128;2023-03-11T01:29:26;2.57;;;2.37;;
7406;SDS011;3745;56.964;24.128;2023-03-11T01:31:51;2.20;;;2.10;;
7406;SDS011;3745;56.964;24.128;2023-03-11T01:34:17;2.70;;;2.37;;
7406;SDS011;3745;56.964;24.128;2023-03-11T01:36:42;2.70;;;2.50;;
7406;SDS011;3745;56.964;24.128;2023-03-11T01:39:08;2.87;;;2.50;;
7406;SDS011;3745;56.964;24.128;2023-03-11T01:41:33;2.83;;;2.60;;
7406;SDS011;3745;56.964;24.128;2023-03-11T01:43:59;4.63;;;2.47;;
7406;SDS011;3745;56.964;24.128;2023-03-11T01:46:25;3.73;;;2.40;;
7406;SDS011;3745;56.964;24.128;2023-03-11T01:48:54;2.87;;;2.57;;
7406;SDS011;3745;56.964;24.128;2023-03-11T01:51:28;3.07;;;2.77;;
7406;SDS011;3745;56.964;24.128;2023-03-11T01:54:06;3.43;;;2.30;;
7406;SDS011;3745;56.964;24.128;2023-03-11T01:56:54;2.83;;;2.30;;
7406;SDS011;3745;56.964;24.128;2023-03-11T01:59:21;3.13;;;2.40;;
7406;SDS011;3745;56.964;24.128;2023-03-11T02:01:58;2.40;;;2.20;;
7406;SDS011;3745;56.964;24.128;2023-03-11T02:04:29;2.70;;;2.50;;
7406;SDS011;3745;56.964;24.128;2023-03-11T02:06:58;2.80;;;2.60;;
7406;SDS011;3745;56.964;24.128;2023-03-11T02:09:25;2.30;;;2.20;;
7406;SDS011;3745;56.964;24.128;2023-03-11T02:11:51;2.50;;;2.30;;
7406;SDS011;3745;56.964;24.128;2023-03-11T02:14:17;3.37;;;2.23;;
7406;SDS011;3745;56.964;24.128;2023-03-11T02:16:44;2.20;;;2.10;;
7406;SDS011;3745;56.964;24.128;2023-03-11T02:19:22;4.63;;;2.67;;
7406;SDS011;3745;56.964;24.128;2023-03-11T02:21:53;3.53;;;2.57;;
7406;SDS011;3745;56.964;24.128;2023-03-11T02:27:05;3.43;;;2.30;;
7406;SDS011;3745;56.964;24.128;2023-03-11T02:29:33;2.53;;;2.33;;
7406;SDS011;3745;56.964;24.128;2023-03-11T02:32:00;2.37;;;2.27;;
7406;SDS011;3745;56.964;24.128;2023-03-11T02:34:33;2.67;;;2.47;;
7406;SDS011;3745;56.964;24.128;2023-03-11T02:37:05;2.67;;;2.07;;
7406;SDS011;3745;56.964;24.128;2023-03-11T02:39:37;2.50;;;2.17;;
7406;SDS011;3745;56.964;24.128;2023-03-11T02:42:05;3.07;;;2.43;;
7406;SDS011;3745;56.964;24.128;2023-03-11T02:44:34;3.20;;;2.40;;
7406;SDS011;3745;56.964;24.128;2023-03-11T02:47:01;2.43;;;2.23;;
7406;SDS011;3745;56.964;24.128;2023-03-11T02:49:26;2.47;;;2.30;;
7406;SDS011;3745;56.964;24.128;2023-03-11T02:51:53;3.90;;;2.40;;
7406;SDS011;3745;56.964;24.128;2023-03-11T02:54:19;2.33;;;2.13;;
7406;SDS011;3745;56.964;24.128;2023-03-11T02:56:44;2.50;;;2.30;;
7406;SDS011;3745;56.964;24.128;2023-03-11T02:59:10;2.40;;;2.20;;
7406;SDS011;3745;56.964;24.128;2023-03-11T03:01:35;3.63;;;2.37;;
7406;SDS011;3745;56.964;24.128;2023-03-11T03:04:01;2.50;;;2.30;;
7406;SDS011;3745;56.964;24.128;2023-03-11T03:06:26;2.10;;;2.00;;
7406;SDS011;3745;56.964;24.128;2023-03-11T03:08:52;2.87;;;2.33;;
7406;SDS011;3745;56.964;24.128;2023-03-11T03:11:18;2.70;;;2.50;;
7406;SDS011;3745;56.964;24.128;2023-03-11T03:13:44;2.07;;;1.97;;
7406;SDS011;3745;56.964;24.128;2023-03-11T03:16:10;3.70;;;2.43;;
7406;SDS011;3745;56.964;24.128;2023-03-11T03:18:35;2.93;;;2.73;;
7406;SDS011;3745;56.964;24.128;2023-03-11T03:21:01;2.43;;;2.20;;
7406;SDS011;3745;56.964;24.128;2023-03-11T03:23:27;2.00;;;1.80;;
7406;SDS011;3745;56.964;24.128;2023-03-11T03:25:52;2.93;;;2.10;;
7406;SDS011;3745;56.964;24.128;2023-03-11T03:28:18;3.00;;;2.20;;
7406;SDS011;3745;56.964;24.128;2023-03-11T03:30:44;2.03;;;1.93;;
7406;SDS011;3745;56.964;24.128;2023-03-11T03:33:09;2.40;;;2.20;;
7406;SDS011;3745;56.964;24.128;2023-03-11T03:35:35;2.17;;;2.07;;
7406;SDS011;3745;56.964;24.128;2023-03-11T03:38:05;2.47;;;2.30;;
7406;SDS011;3745;56.964;24.128;2023-03-11T03:40:30;3.00;;;2.30;;
7406;SDS011;3745;56.964;24.128;2023-03-11T03:42:56;2.60;;;2.40;;
7406;SDS011;3745;56.964;24.128;2023-03-11T03:45:21;2.83;;;2.20;;
7406;SDS011;3745;56.964;24.128;2023-03-11T03:47:47;2.70;;;2.10;;
7406;SDS011;3745;56.964;24.128;2023-03-11T03:50:13;2.30;;;2.20;;
7406;SDS011;3745;56.964;24.128;2023-03-11T03:52:39;2.13;;;2.03;;
7406;SDS011;3745;56.964;24.128;2023-03-11T03:55:05;2.47;;;2.37;;
7406;SDS011;3745;56.964;24.128;2023-03-11T03:57:31;2.57;;;2.40;;
7406;SDS011;3745;56.964;24.128;2023-03-11T03:59:56;2.37;;;2.20;;
7406;SDS011;3745;56.964;24.128;2023-03-11T04:02:22;3.43;;;2.70;;
7406;SDS011;3745;56.964;24.128;2023-03-11T04:04:48;2.43;;;2.23;;
7406;SDS011;3745;56.964;24.128;2023-03-11T04:07:13;2.47;;;2.27;;
7406;SDS011;3745;56.964;24.128;2023-03-11T04:09:40;3.33;;;2.83;;
7406;SDS011;3745;56.964;24.128;2023-03-11T04:12:08;2.40;;;2.20;;
7406;SDS011;3745;56.964;24.128;2023-03-11T04:14:38;2.83;;;2.60;;
7406;SDS011;3745;56.964;24.128;2023-03-11T04:17:04;4.87;;;3.27;;
7406;SDS011;3745;56.964;24.128;2023-03-11T04:19:29;2.70;;;2.50;;
7406;SDS011;3745;56.964;24.128;2023-03-11T04:21:55;2.40;;;2.20;;
7406;SDS011;3745;56.964;24.128;2023-03-11T04:24:20;2.80;;;2.60;;
7406;SDS011;3745;56.964;24.128;2023-03-11T04:26:46;2.80;;;2.60;;
7406;SDS011;3745;56.964;24.128;2023-03-11T04:29:11;2.97;;;2.30;;
7406;SDS011;3745;56.964;24.128;2023-03-11T04:31:37;5.13;;;2.73;;
7406;SDS011;3745;56.964;24.128;2023-03-11T04:34:03;2.83;;;2.63;;
7406;SDS011;3745;56.964;24.128;2023-03-11T04:36:28;2.83;;;2.63;;
7406;SDS011;3745;56.964;24.128;2023-03-11T04:38:54;2.70;;;2.47;;
7406;SDS011;3745;56.964;24.128;2023-03-11T04:41:20;2.93;;;2.70;;
7406;SDS011;3745;56.964;24.128;2023-03-11T04:43:46;2.87;;;2.67;;
7406;SDS011;3745;56.964;24.128;2023-03-11T04:46:12;2.73;;;2.53;;
7406;SDS011;3745;56.964;24.128;2023-03-11T04:48:37;3.57;;;2.70;;
7406;SDS011;3745;56.964;24.128;2023-03-11T04:51:03;2.77;;;2.57;;
7406;SDS011;3745;56.964;24.128;2023-03-11T04:53:29;2.67;;;2.47;;
7406;SDS011;3745;56.964;24.128;2023-03-11T04:55:54;4.37;;;3.00;;
7406;SDS011;3745;56.964;24.128;2023-03-11T04:58:20;2.73;;;2.30;;
7406;SDS011;3745;56.964;24.128;2023-03-11T05:00:45;2.73;;;2.53;;
7406;SDS011;3745;56.964;24.128;2023-03-11T05:03:11;3.03;;;2.73;;
7406;SDS011;3745;56.964;24.128;2023-03-11T05:05:37;4.07;;;3.10;;
7406;SDS011;3745;56.964;24.128;2023-03-11T05:08:02;3.03;;;2.40;;
7406;SDS011;3745;56.964;24.128;2023-03-11T05:10:28;2.60;;;2.40;;
7406;SDS011;3745;56.964;24.128;2023-03-11T05:12:54;2.97;;;2.77;;
7406;SDS011;3745;56.964;24.128;2023-03-11T05:15:19;4.03;;;2.97;;
7406;SDS011;3745;56.964;24.128;2023-03-11T05:17:45;4.83;;;3.20;;
7406;SDS011;3745;56.964;24.128;2023-03-11T05:20:11;3.17;;;2.70;;
7406;SDS011;3745;56.964;24.128;2023-03-11T05:22:37;4.10;;;3.47;;
7406;SDS011;3745;56.964;24.128;2023-03-11T05:25:04;3.13;;;2.83;;
7406;SDS011;3745;56.964;24.128;2023-03-11T05:27:30;4.33;;;2.70;;
7406;SDS011;3745;56.964;24.128;2023-03-11T05:29:56;3.50;;;3.20;;
7406;SDS011;3745;56.964;24.128;2023-03-11T05:32:22;3.47;;;2.73;;
7406;SDS011;3745;56.964;24.128;2023-03-11T05:34:48;3.43;;;3.10;;
7406;SDS011;3745;56.964;24.128;2023-03-11T05:37:14;6.67;;;3.43;;
7406;SDS011;3745;56.964;24.128;2023-03-11T05:39:40;5.37;;;3.40;;
7406;SDS011;3745;56.964;24.128;2023-03-11T05:42:06;4.20;;;3.30;;
7406;SDS011;3745;56.964;24.128;2023-03-11T05:44:33;4.33;;;3.03;;
7406;SDS011;3745;56.964;24.128;2023-03-11T05:46:59;4.10;;;3.40;;
7406;SDS011;3745;56.964;24.128;2023-03-11T05:49:25;4.10;;;3.27;;
7406;SDS011;3745;56.964;24.128;2023-03-11T05:51:51;3.90;;;3.50;;
7406;SDS011;3745;56.964;24.128;2023-03-11T05:54:18;3.90;;;3.43;;
7406;SDS011;3745;56.964;24.128;2023-03-11T05:56:44;6.03;;;3.17;;
7406;SDS011;3745;56.964;24.128;2023-03-11T05:59:10;4.50;;;3.67;;
7406;SDS011;3745;56.964;24.128;2023-03-11T06:01:37;3.67;;;3.37;;
7406;SDS011;3745;56.964;24.128;2023-03-11T06:04:03;4.40;;;3.50;;
7406;SDS011;3745;56.964;24.128;2023-03-11T06:06:29;3.67;;;2.90;;
7406;SDS011;3745;56.964;24.128;2023-03-11T06:08:55;4.47;;;3.30;;
7406;SDS011;3745;56.964;24.128;2023-03-11T06:11:21;4.70;;;3.33;;
7406;SDS011;3745;56.964;24.128;2023-03-11T06:13:54;4.63;;;3.40;;
7406;SDS011;3745;56.964;24.128;2023-03-11T06:16:22;3.60;;;3.30;;
7406;SDS011;3745;56.964;24.128;2023-03-11T06:18:48;6.40;;;3.97;;
7406;SDS011;3745;56.964;24.128;2023-03-11T06:21:18;5.10;;;3.47;;
7406;SDS011;3745;56.964;24.128;2023-03-11T06:23:45;3.97;;;3.60;;
7406;SDS011;3745;56.964;24.128;2023-03-11T06:26:12;5.17;;;3.07;;
7406;SDS011;3745;56.964;24.128;2023-03-11T06:28:41;4.30;;;3.80;;
7406;SDS011;3745;56.964;24.128;2023-03-11T06:31:08;4.33;;;3.60;;
7406;SDS011;3745;56.964;24.128;2023-03-11T06:33:36;4.27;;;3.87;;
7406;SDS011;3745;56.964;24.128;2023-03-11T06:36:02;4.43;;;3.73;;
7406;SDS011;3745;56.964;24.128;2023-03-11T06:38:29;5.57;;;4.17;;
7406;SDS011;3745;56.964;24.128;2023-03-11T06:40:59;6.67;;;4.23;;
7406;SDS011;3745;56.964;24.128;2023-03-11T06:43:25;8.30;;;4.80;;
7406;SDS011;3745;56.964;24.128;2023-03-11T06:45:51;8.17;;;4.50;;
7406;SDS011;3745;56.964;24.128;2023-03-11T06:48:17;6.17;;;4.40;;
7406;SDS011;3745;56.964;24.128;2023-03-11T06:50:42;4.83;;;4.37;;
7406;SDS011;3745;56.964;24.128;2023-03-11T06:53:08;5.27;;;4.23;;
7406;SDS011;3745;56.964;24.128;2023-03-11T06:55:34;5.23;;;4.07;;
7406;SDS011;3745;56.964;24.128;2023-03-11T06:57:59;6.50;;;4.33;;
7406;SDS011;3745;56.964;24.128;2023-03-11T07:00:25;7.63;;;5.10;;
7406;SDS011;3745;56.964;24.128;2023-03-11T07:02:52;5.17;;;4.23;;
7406;SDS011;3745;56.964;24.128;2023-03-11T07:05:17;6.07;;;5.23;;
7406;SDS011;3745;56.964;24.128;2023-03-11T07:07:43;6.07;;;4.70;;
7406;SDS011;3745;56.964;24.128;2023-03-11T07:10:09;6.90;;;4.23;;
7406;SDS011;3745;56.964;24.128;2023-03-11T07:12:35;4.03;;;3.53;;
7406;SDS011;3745;56.964;24.128;2023-03-11T07:15:00;6.93;;;4.10;;
7406;SDS011;3745;56.964;24.128;2023-03-11T07:17:26;4.43;;;3.87;;
7406;SDS011;3745;56.964;24.128;2023-03-11T07:19:52;5.47;;;3.63;;
7406;SDS011;3745;56.964;24.128;2023-03-11T07:22:18;3.90;;;3.43;;
7406;SDS011;3745;56.964;24.128;2023-03-11T07:24:44;4.20;;;3.80;;
7406;SDS011;3745;56.964;24.128;2023-03-11T07:27:11;6.70;;;4.40;;
7406;SDS011;3745;56.964;24.128;2023-03-11T07:29:37;4.83;;;3.77;;
7406;SDS011;3745;56.964;24.128;2023-03-11T07:32:03;5.03;;;4.23;;
7406;SDS011;3745;56.964;24.128;2023-03-11T07:34:28;5.03;;;4.10;;
7406;SDS011;3745;56.964;24.128;2023-03-11T07:36:54;4.17;;;3.80;;
7406;SDS011;3745;56.964;24.128;2023-03-11T07:39:19;5.83;;;4.17;;
7406;SDS011;3745;56.964;24.128;2023-03-11T07:41:45;4.35;;;3.95;;
7406;SDS011;3745;56.964;24.128;2023-03-11T07:44:12;4.73;;;3.90;;
7406;SDS011;3745;56.964;24.128;2023-03-11T07:46:39;4.73;;;4.10;;
7406;SDS011;3745;56.964;24.128;2023-03-11T07:49:05;4.10;;;3.77;;
7406;SDS011;3745;56.964;24.128;2023-03-11T07:51:32;6.97;;;4.27;;
7406;SDS011;3745;56.964;24.128;2023-03-11T07:54:00;5.23;;;4.50;;
7406;SDS011;3745;56.964;24.128;2023-03-11T07:56:27;6.13;;;4.40;;
7406;SDS011;3745;56.964;24.128;2023-03-11T07:58:55;4.27;;;3.87;;
7406;SDS011;3745;56.964;24.128;2023-03-11T08:01:23;6.03;;;4.23;;
7406;SDS011;3745;56.964;24.128;2023-03-11T08:03:50;5.30;;;4.10;;
7406;SDS011;3745;56.964;24.128;2023-03-11T08:06:22;7.10;;;4.80;;
7406;SDS011;3745;56.964;24.128;2023-03-11T08:08:51;6.63;;;4.13;;
7406;SDS011;3745;56.964;24.128;2023-03-11T08:11:18;5.32;;;4.32;;
7406;SDS011;3745;56.964;24.128;2023-03-11T08:13:45;6.47;;;4.22;;
7406;SDS011;3745;56.964;24.128;2023-03-11T08:16:12;4.93;;;4.10;;
7406;SDS011;3745;56.964;24.128;2023-03-11T08:18:40;5.23;;;4.00;;
7406;SDS011;3745;56.964;24.128;2023-03-11T08:21:07;5.77;;;3.90;;
7406;SDS011;3745;56.964;24.128;2023-03-11T08:23:34;7.18;;;4.78;;
7406;SDS011;3745;56.964;24.128;2023-03-11T08:26:03;6.72;;;3.97;;
7406;SDS011;3745;56.964;24.128;2023-03-11T08:28:34;6.37;;;4.00;;
7406;SDS011;3745;56.964;24.128;2023-03-11T08:31:00;4.80;;;4.17;;
7406;SDS011;3745;56.964;24.128;2023-03-11T08:33:26;12.73;;;6.33;;
7406;SDS011;3745;56.964;24.128;2023-03-11T08:35:52;10.25;;;5.68;;
7406;SDS011;3745;56.964;24.128;2023-03-11T08:38:18;7.22;;;4.97;;
7406;SDS011;3745;56.964;24.128;2023-03-11T08:40:44;8.20;;;5.55;;
7406;SDS011;3745;56.964;24.128;2023-03-11T08:43:13;11.68;;;6.05;;
7406;SDS011;3745;56.964;24.128;2023-03-11T08:45:40;9.23;;;5.87;;
7406;SDS011;3745;56.964;24.128;2023-03-11T08:48:06;12.73;;;5.97;;
7406;SDS011;3745;56.964;24.128;2023-03-11T08:50:32;21.15;;;9.10;;
7406;SDS011;3745;56.964;24.128;2023-03-11T08:52:58;22.10;;;9.43;;
7406;SDS011;3745;56.964;24.128;2023-03-11T08:55:27;23.50;;;9.68;;
7406;SDS011;3745;56.964;24.128;2023-03-11T08:57:54;25.48;;;9.55;;
7406;SDS011;3745;56.964;24.128;2023-03-11T09:00:20;16.20;;;7.60;;
7406;SDS011;3745;56.964;24.128;2023-03-11T09:02:47;15.35;;;7.88;;
7406;SDS011;3745;56.964;24.128;2023-03-11T09:05:13;13.93;;;7.57;;
7406;SDS011;3745;56.964;24.128;2023-03-11T09:07:39;12.13;;;6.38;;
7406;SDS011;3745;56.964;24.128;2023-03-11T09:10:05;8.52;;;5.28;;
7406;SDS011;3745;56.964;24.128;2023-03-11T09:12:31;8.43;;;4.63;;
7406;SDS011;3745;56.964;24.128;2023-03-11T09:14:57;6.00;;;4.33;;
7406;SDS011;3745;56.964;24.128;2023-03-11T09:17:22;5.50;;;4.88;;
7406;SDS011;3745;56.964;24.128;2023-03-11T09:19:48;6.23;;;4.30;;
7406;SDS011;3745;56.964;24.128;2023-03-11T09:22:14;6.05;;;4.30;;
7406;SDS011;3745;56.964;24.128;2023-03-11T09:24:39;5.60;;;4.55;;
7406;SDS011;3745;56.964;24.128;2023-03-11T09:27:05;9.23;;;5.40;;
7406;SDS011;3745;56.964;24.128;2023-03-11T09:29:30;9.30;;;4.90;;
7406;SDS011;3745;56.964;24.128;2023-03-11T09:31:56;8.85;;;4.63;;
7406;SDS011;3745;56.964;24.128;2023-03-11T09:34:22;5.28;;;4.53;;
7406;SDS011;3745;56.964;24.128;2023-03-11T09:36:48;5.15;;;4.35;;
7406;SDS011;3745;56.964;24.128;2023-03-11T09:39:13;8.60;;;4.65;;
7406;SDS011;3745;56.964;24.128;2023-03-11T09:41:45;5.13;;;4.63;;
7406;SDS011;3745;56.964;24.128;2023-03-11T09:44:35;6.45;;;5.10;;
7406;SDS011;3745;56.964;24.128;2023-03-11T09:47:14;4.50;;;3.83;;
7406;SDS011;3745;56.964;24.128;2023-03-11T09:55:57;8.05;;;5.00;;
7406;SDS011;3745;56.964;24.128;2023-03-11T10:01:26;7.05;;;3.95;;
7406;SDS011;3745;56.964;24.128;2023-03-11T10:03:57;6.10;;;4.83;;
7406;SDS011;3745;56.964;24.128;2023-03-11T10:06:40;4.38;;;3.97;;
7406;SDS011;3745;56.964;24.128;2023-03-11T10:14:11;5.20;;;3.90;;
7406;SDS011;3745;56.964;24.128;2023-03-11T10:28:24;6.63;;;4.30;;
7406;SDS011;3745;56.964;24.128;2023-03-11T10:30:41;4.43;;;3.75;;
7406;SDS011;3745;56.964;24.128;2023-03-11T10:33:25;4.93;;;3.83;;
7406;SDS011;3745;56.964;24.128;2023-03-11T10:36:03;5.20;;;3.80;;
7406;SDS011;3745;56.964;24.128;2023-03-11T10:38:41;5.03;;;4.37;;
7406;SDS011;3745;56.964;24.128;2023-03-11T10:41:21;9.63;;;4.63;;
7406;SDS011;3745;56.964;24.128;2023-03-11T10:46:52;5.93;;;4.10;;
7406;SDS011;3745;56.964;24.128;2023-03-11T10:49:18;7.23;;;4.77;;
7406;SDS011;3745;56.964;24.128;2023-03-11T10:51:47;7.30;;;4.93;;
7406;SDS011;3745;56.964;24.128;2023-03-11T10:54:23;5.00;;;4.60;;
7406;SDS011;3745;56.964;24.128;2023-03-11T10:56:55;7.90;;;6.30;;
7406;SDS011;3745;56.964;24.128;2023-03-11T10:59:24;11.80;;;7.30;;
7406;SDS011;3745;56.964;24.128;2023-03-11T11:01:54;12.55;;;8.18;;
7406;SDS011;3745;56.964;24.128;2023-03-11T11:04:26;11.67;;;7.63;;
7406;SDS011;3745;56.964;24.128;2023-03-11T11:06:54;11.57;;;7.03;;
7406;SDS011;3745;56.964;24.128;2023-03-11T11:09:21;8.60;;;6.23;;
7406;SDS011;3745;56.964;24.128;2023-03-11T11:14:48;10.50;;;6.03;;
7406;SDS011;3745;56.964;24.128;2023-03-11T11:17:23;7.37;;;5.37;;
7406;SDS011;3745;56.964;24.128;2023-03-11T11:19:55;11.87;;;5.27;;
7406;SDS011;3745;56.964;24.128;2023-03-11T11:22:23;7.63;;;5.22;;
7406;SDS011;3745;56.964;24.128;2023-03-11T11:24:50;10.40;;;6.00;;
7406;SDS011;3745;56.964;24.128;2023-03-11T11:27:20;9.23;;;5.97;;
7406;SDS011;3745;56.964;24.128;2023-03-11T11:30:01;7.43;;;5.20;;
7406;SDS011;3745;56.964;24.128;2023-03-11T11:32:33;11.17;;;5.17;;
7406;SDS011;3745;56.964;24.128;2023-03-11T11:35:01;7.60;;;5.23;;
7406;SDS011;3745;56.964;24.128;2023-03-11T11:37:31;8.10;;;5.33;;
7406;SDS011;3745;56.964;24.128;2023-03-11T11:40:05;9.47;;;5.23;;
7406;SDS011;3745;56.964;24.128;2023-03-11T11:42:52;8.40;;;5.47;;
7406;SDS011;3745;56.964;24.128;2023-03-11T11:47:47;8.13;;;5.73;;
7406;SDS011;3745;56.964;24.128;2023-03-11T11:50:36;7.77;;;6.00;;
7406;SDS011;3745;56.964;24.128;2023-03-11T11:55:46;7.33;;;4.70;;
7406;SDS011;3745;56.964;24.128;2023-03-11T11:58:13;5.93;;;4.20;;
7406;SDS011;3745;56.964;24.128;2023-03-11T12:06:13;4.40;;;3.87;;
7406;SDS011;3745;56.964;24.128;2023-03-11T12:09:39;5.83;;;3.63;;
7406;SDS011;3745;56.964;24.128;2023-03-11T12:11:56;3.67;;;3.37;;
7406;SDS011;3745;56.964;24.128;2023-03-11T12:14:37;7.23;;;4.00;;
7406;SDS011;3745;56.964;24.128;2023-03-11T12:17:12;5.10;;;4.23;;
7406;SDS011;3745;56.964;24.128;2023-03-11T12:28:20;8.17;;;5.43;;
7406;SDS011;3745;56.964;24.128;2023-03-11T12:31:01;7.73;;;5.67;;
7406;SDS011;3745;56.964;24.128;2023-03-11T12:33:36;9.33;;;5.07;;
7406;SDS011;3745;56.964;24.128;2023-03-11T12:36:24;9.07;;;5.83;;
7406;SDS011;3745;56.964;24.128;2023-03-11T12:38:53;11.13;;;6.30;;
7406;SDS011;3745;56.964;24.128;2023-03-11T12:41:26;7.60;;;5.70;;
7406;SDS011;3745;56.964;24.128;2023-03-11T12:44:04;10.47;;;5.20;;
7406;SDS011;3745;56.964;24.128;2023-03-11T12:49:27;5.83;;;4.47;;
7406;SDS011;3745;56.964;24.128;2023-03-11T12:54:41;8.23;;;4.90;;
7406;SDS011;3745;56.964;24.128;2023-03-11T13:08:51;7.27;;;5.10;;
7406;SDS011;3745;56.964;24.128;2023-03-11T13:11:26;7.77;;;4.87;;
7406;SDS011;3745;56.964;24.128;2023-03-11T13:16:40;6.67;;;4.43;;
7406;SDS011;3745;56.964;24.128;2023-03-11T13:21:52;11.63;;;6.97;;
7406;SDS011;3745;56.964;24.128;2023-03-11T13:27:03;10.40;;;5.90;;
7406;SDS011;3745;56.964;24.128;2023-03-11T13:40:50;25.50;;;13.43;;
7406;SDS011;3745;56.964;24.128;2023-03-11T13:43:18;14.55;;;8.70;;
7406;SDS011;3745;56.964;24.128;2023-03-11T13:45:52;9.20;;;5.97;;
7406;SDS011;3745;56.964;24.128;2023-03-11T13:48:45;6.40;;;4.70;;
7406;SDS011;3745;56.964;24.128;2023-03-11T13:51:23;4.50;;;3.43;;
7406;SDS011;3745;56.964;24.128;2023-03-11T13:54:24;5.10;;;3.17;;
7406;SDS011;3745;56.964;24.128;2023-03-11T13:56:57;6.50;;;3.27;;
7406;SDS011;3745;56.964;24.128;2023-03-11T13:59:28;4.00;;;3.00;;
7406;SDS011;3745;56.964;24.128;2023-03-11T14:02:03;3.77;;;2.77;;
7406;SDS011;3745;56.964;24.128;2023-03-11T14:04:46;5.37;;;2.87;;
7406;SDS011;3745;56.964;24.128;2023-03-11T14:09:50;4.10;;;3.10;;
7406;SDS011;3745;56.964;24.128;2023-03-11T14:12:16;6.17;;;4.33;;
7406;SDS011;3745;56.964;24.128;2023-03-11T14:14:47;15.23;;;5.23;;
7406;SDS011;3745;56.964;24.128;2023-03-11T14:17:19;8.70;;;5.30;;
7406;SDS011;3745;56.964;24.128;2023-03-11T14:22:52;10.20;;;3.70;;
7406;SDS011;3745;56.964;24.128;2023-03-11T14:25:26;4.90;;;3.17;;
7406;SDS011;3745;56.964;24.128;2023-03-11T14:27:58;3.87;;;2.93;;
7406;SDS011;3745;56.964;24.128;2023-03-11T14:30:27;2.47;;;2.27;;
7406;SDS011;3745;56.964;24.128;2023-03-11T14:35:50;3.47;;;2.33;;
7406;SDS011;3745;56.964;24.128;2023-03-11T14:38:21;2.57;;;2.37;;
7406;SDS011;3745;56.964;24.128;2023-03-11T14:40:49;3.40;;;2.80;;
7406;SDS011;3745;56.964;24.128;2023-03-11T14:43:19;5.53;;;2.60;;
7406;SDS011;3745;56.964;24.128;2023-03-11T14:45:45;2.40;;;2.20;;
7406;SDS011;3745;56.964;24.128;2023-03-11T14:51:01;2.97;;;2.60;;
7406;SDS011;3745;56.964;24.128;2023-03-11T14:56:11;2.80;;;2.60;;
7406;SDS011;3745;56.964;24.128;2023-03-11T14:58:46;3.23;;;2.40;;
7406;SDS011;3745;56.964;24.128;2023-03-11T15:01:22;3.00;;;2.60;;
7406;SDS011;3745;56.964;24.128;2023-03-11T15:03:57;3.03;;;2.83;;
7406;SDS011;3745;56.964;24.128;2023-03-11T15:06:51;2.80;;;2.60;;
7406;SDS011;3745;56.964;24.128;2023-03-11T15:09:18;3.40;;;2.50;;
7406;SDS011;3745;56.964;24.128;2023-03-11T15:16:53;2.83;;;2.63;;
7406;SDS011;3745;56.964;24.128;2023-03-11T15:19:29;2.73;;;2.50;;
7406;SDS011;3745;56.964;24.128;2023-03-11T15:22:04;2.77;;;2.57;;
7406;SDS011;3745;56.964;24.128;2023-03-11T15:24:51;6.50;;;3.00;;
7406;SDS011;3745;56.964;24.128;2023-03-11T15:29:54;3.73;;;2.60;;
7406;SDS011;3745;56.964;24.128;2023-03-11T15:32:37;2.70;;;2.50;;
7406;SDS011;3745;56.964;24.128;2023-03-11T15:37:35;2.87;;;2.47;;
7406;SDS011;3745;56.964;24.128;2023-03-11T15:45:41;5.47;;;2.90;;
7406;SDS011;3745;56.964;24.128;2023-03-11T15:48:11;3.77;;;2.50;;
7406;SDS011;3745;56.964;24.128;2023-03-11T15:50:51;3.00;;;2.83;;
7406;SDS011;3745;56.964;24.128;2023-03-11T15:53:21;3.00;;;2.80;;
7406;SDS011;3745;56.964;24.128;2023-03-11T15:55:48;2.73;;;2.43;;
7406;SDS011;3745;56.964;24.128;2023-03-11T15:58:16;2.77;;;2.57;;
7406;SDS011;3745;56.964;24.128;2023-03-11T16:00:47;3.17;;;2.93;;
7406;SDS011;3745;56.964;24.128;2023-03-11T16:03:15;3.77;;;3.10;;
7406;SDS011;3745;56.964;24.128;2023-03-11T16:05:41;5.57;;;2.70;;
7406;SDS011;3745;56.964;24.128;2023-03-11T16:08:07;3.03;;;2.73;;
7406;SDS011;3745;56.964;24.128;2023-03-11T16:10:32;8.83;;;3.60;;
7406;SDS011;3745;56.964;24.128;2023-03-11T16:12:58;4.00;;;2.97;;
7406;SDS011;3745;56.964;24.128;2023-03-11T16:15:25;4.67;;;3.27;;
7406;SDS011;3745;56.964;24.128;2023-03-11T16:17:54;4.50;;;3.37;;
7406;SDS011;3745;56.964;24.128;2023-03-11T16:20:22;3.97;;;3.27;;
7406;SDS011;3745;56.964;24.128;2023-03-11T16:22:50;4.60;;;2.93;;
7406;SDS011;3745;56.964;24.128;2023-03-11T16:25:22;3.13;;;2.77;;
7406;SDS011;3745;56.964;24.128;2023-03-11T16:28:03;6.53;;;3.10;;
7406;SDS011;3745;56.964;24.128;2023-03-11T16:30:29;3.63;;;3.17;;
7406;SDS011;3745;56.964;24.128;2023-03-11T16:32:56;3.60;;;3.13;;
7406;SDS011;3745;56.964;24.128;2023-03-11T16:35:22;3.73;;;3.10;;
7406;SDS011;3745;56.964;24.128;2023-03-11T16:37:48;4.43;;;3.23;;
7406;SDS011;3745;56.964;24.128;2023-03-11T16:40:15;6.60;;;3.47;;
7406;SDS011;3745;56.964;24.128;2023-03-11T16:42:43;3.70;;;2.90;;
7406;SDS011;3745;56.964;24.128;2023-03-11T16:45:13;3.50;;;3.23;;
7406;SDS011;3745;56.964;24.128;2023-03-11T16:47:40;4.73;;;3.53;;
7406;SDS011;3745;56.964;24.128;2023-03-11T16:50:06;3.60;;;3.30;;
7406;SDS011;3745;56.964;24.128;2023-03-11T16:52:32;3.83;;;3.43;;
7406;SDS011;3745;56.964;24.128;2023-03-11T16:54:58;5.73;;;3.50;;
7406;SDS011;3745;56.964;24.128;2023-03-11T16:57:24;5.03;;;2.60;;
7406;SDS011;3745;56.964;24.128;2023-03-11T16:59:49;4.00;;;3.43;;
7406;SDS011;3745;56.964;24.128;2023-03-11T17:02:16;3.03;;;2.73;;
7406;SDS011;3745;56.964;24.128;2023-03-11T17:04:42;4.37;;;3.10;;
7406;SDS011;3745;56.964;24.128;2023-03-11T17:07:08;5.47;;;3.17;;
7406;SDS011;3745;56.964;24.128;2023-03-11T17:09:35;3.10;;;2.90;;